Time;durP1;ratioP1;P1;durP2;ratioP2;P2;SDS_P1;SDS_P2;PMS_P1;PMS_P2;Temp;Humidity;BMP_temperature;BMP_pressure;BME280_temperature;BME280_humidity;BME280_pressure;Samples;Min_cycle;Max_cycle;Signal;HPM_P1;HPM_P2
2022/05/13 00:00:31;;;;;;;26.50;12.33;;;;;;;13.93;77.79;94677.95;1633282;88;21077;-49
2022/05/13 00:02:57;;;;;;;23.47;11.12;;;;;;;13.96;77.58;94679.02;1633002;88;21001;-49
2022/05/13 00:05:24;;;;;;;24.98;12.40;;;;;;;13.99;77.46;94671.91;1632902;88;20977;-49
2022/05/13 00:07:51;;;;;;;24.02;13.50;;;;;;;14.05;77.29;94676.19;1632988;87;21002;-53
2022/05/13 00:10:19;;;;;;;20.77;12.68;;;;;;;14.06;77.14;94679.88;1631559;88;21077;-49
2022/05/13 00:12:45;;;;;;;19.30;13.38;;;;;;;14.06;76.88;94674.95;1631479;87;21018;-50
2022/05/13 00:15:16;;;;;;;24.72;12.47;;;;;;;13.98;77.01;94678.69;1631623;87;21005;-50
2022/05/13 00:17:43;;;;;;;18.42;12.53;;;;;;;13.93;76.91;94679.94;1632539;87;21050;-51
2022/05/13 00:20:11;;;;;;;21.17;12.95;;;;;;;13.85;77.06;94677.39;1638998;87;21037;-49
2022/05/13 00:22:47;;;;;;;16.55;12.50;;;;;;;13.84;77.46;94678.63;1638438;87;21565;-49
2022/05/13 00:25:19;;;;;;;17.90;11.83;;;;;;;13.85;77.38;94674.63;1616798;87;21025;-49
2022/05/13 00:27:46;;;;;;;;;;;;;;;13.81;77.40;94680.31;1641115;87;20990;-49
2022/05/13 00:30:13;;;;;;;22.22;12.75;;;;;;;13.75;77.46;94680.81;1639021;87;20178;-50
2022/05/13 00:32:40;;;;;;;22.98;13.20;;;;;;;13.73;77.47;94673.61;1639003;87;21254;-50
2022/05/13 00:35:07;;;;;;;23.27;12.93;;;;;;;13.72;77.33;94672.69;1616835;87;21455;-50
2022/05/13 00:37:34;;;;;;;24.25;13.32;;;;;;;13.69;77.44;94672.25;1639265;87;20965;-49
2022/05/13 00:40:02;;;;;;;18.37;13.80;;;;;;;13.67;77.35;94675.47;1639174;87;21556;-49
2022/05/13 00:42:29;;;;;;;18.48;12.90;;;;;;;13.63;77.33;94675.52;1638981;87;21099;-50
2022/05/13 00:44:57;;;;;;;27.55;14.65;;;;;;;13.58;77.50;94680.27;1638955;87;22086;-49
2022/05/13 00:47:24;;;;;;;23.40;12.30;;;;;;;13.56;77.58;94684.12;1638989;87;21445;-49
2022/05/13 00:49:52;;;;;;;22.90;12.37;;;;;;;13.53;77.54;94676.77;1638883;87;21029;-49
2022/05/13 00:52:18;;;;;;;22.80;12.60;;;;;;;13.45;77.82;94677.72;1616682;87;21607;-50
2022/05/13 00:54:45;;;;;;;19.30;12.10;;;;;;;13.43;78.25;94680.19;1639464;87;21017;-49
2022/05/13 00:57:13;;;;;;;21.70;13.62;;;;;;;13.45;78.38;94686.64;1638932;87;21155;-49
2022/05/13 00:59:43;;;;;;;21.40;13.45;;;;;;;13.44;78.29;94679.59;1638871;87;21030;-49
2022/05/13 01:02:11;;;;;;;14.73;11.65;;;;;;;13.42;78.21;94678.66;1639338;87;21544;-49
2022/05/13 01:04:38;;;;;;;22.25;11.93;;;;;;;13.36;78.06;94670.09;1638898;87;21038;-51
2022/05/13 01:07:14;;;;;;;14.70;11.28;;;;;;;13.30;78.04;94674.72;1616593;87;21596;-51
2022/05/13 01:09:48;;;;;;;25.23;12.20;;;;;;;13.25;78.19;94678.12;1617726;87;21259;-50
2022/05/13 01:12:18;;;;;;;17.82;11.30;;;;;;;13.23;78.38;94679.95;1640678;87;21453;-50
2022/05/13 01:14:52;;;;;;;25.37;13.30;;;;;;;13.16;78.29;94686.42;1618300;87;21033;-51
2022/05/13 01:20:22;;;;;;;15.78;10.63;;;;;;;12.93;78.45;94684.34;1649651;87;21021;-50
2022/05/13 01:22:51;;;;;;;19.87;11.28;;;;;;;12.83;78.81;94695.20;1661204;86;21197;-49
2022/05/13 01:25:24;;;;;;;16.90;11.40;;;;;;;12.81;79.19;94701.80;1649587;87;20965;-49
2022/05/13 01:27:54;;;;;;;13.98;11.08;;;;;;;12.77;79.39;94696.46;1661145;85;21038;-50
2022/05/13 01:30:25;;;;;;;17.75;10.75;;;;;;;12.74;79.48;94704.27;1625827;87;21001;-50
2022/05/13 01:32:51;;;;;;;17.95;10.63;;;;;;;12.70;79.65;94694.63;1661121;85;21016;-50
2022/05/13 01:35:19;;;;;;;14.47;9.28;;;;;;;12.68;79.91;94699.84;1649689;87;21752;-50
2022/05/13 01:37:46;;;;;;;14.40;8.85;;;;;;;12.67;80.27;94694.14;1661182;86;21019;-49
2022/05/13 01:40:13;;;;;;;21.82;11.65;;;;;;;12.68;80.58;94688.80;1632794;88;21010;-50
2022/05/13 01:42:40;;;;;;;24.67;12.73;;;;;;;12.69;80.62;94693.09;1649448;87;21086;-48
2022/05/13 01:45:09;;;;;;;29.05;16.67;;;;;;;12.61;80.54;94696.78;1661201;86;20998;-48
2022/05/13 01:47:36;;;;;;;30.00;15.23;;;;;;;12.54;80.63;94690.17;1649507;87;21801;-50
2022/05/13 01:50:05;;;;;;;21.25;14.40;;;;;;;12.52;80.84;94694.64;1661072;86;21001;-50
2022/05/13 01:52:32;;;;;;;28.87;13.25;;;;;;;12.50;81.12;94698.47;1649693;87;21037;-50
2022/05/13 01:54:59;;;;;;;26.35;14.63;;;;;;;12.54;81.36;94708.73;1661152;86;21053;-49
2022/05/13 01:57:25;;;;;;;23.85;14.45;;;;;;;12.53;81.06;94701.06;1649608;87;21005;-49
2022/05/13 01:59:53;;;;;;;33.98;14.68;;;;;;;12.53;80.98;94709.19;1661281;85;21231;-49
2022/05/13 02:02:20;;;;;;;21.93;14.50;;;;;;;12.48;81.09;94709.17;1649531;87;21477;-49
2022/05/13 02:04:46;;;;;;;23.50;13.70;;;;;;;12.46;81.12;94709.50;1661184;85;21002;-50
2022/05/13 02:07:13;;;;;;;23.18;12.00;;;;;;;12.41;81.32;94702.59;1649438;87;21053;-50
2022/05/13 02:09:39;;;;;;;26.97;12.73;;;;;;;12.43;81.69;94703.53;1660186;86;21161;-49
2022/05/13 02:12:08;;;;;;;21.17;13.68;;;;;;;12.49;81.70;94706.57;1659744;86;21260;-49
2022/05/13 02:14:35;;;;;;;19.30;12.80;;;;;;;12.54;81.81;94699.08;1648085;87;20957;-50
2022/05/13 02:17:02;;;;;;;26.27;13.93;;;;;;;12.53;81.69;94699.53;1635819;87;21738;-49
2022/05/13 02:19:28;;;;;;;24.60;14.90;;;;;;;12.47;81.35;94706.27;1629237;87;21065;-49
2022/05/13 02:21:55;;;;;;;22.07;13.70;;;;;;;12.38;81.30;94704.90;1680319;85;20966;-49
2022/05/13 02:24:22;;;;;;;24.50;13.25;;;;;;;12.29;81.42;94699.36;1680312;85;22148;-49
2022/05/13 02:26:48;;;;;;;24.20;13.68;;;;;;;12.24;81.72;94698.60;1680233;85;21037;-49
2022/05/13 02:29:15;;;;;;;40.75;15.50;;;;;;;12.20;81.94;94699.38;1680393;85;21011;-50
2022/05/13 02:31:41;;;;;;;18.62;12.88;;;;;;;12.17;82.48;94703.64;1680022;85;21029;-49
2022/05/13 02:34:09;;;;;;;16.35;11.53;;;;;;;12.17;82.44;94704.42;1680326;85;21078;-49
2022/05/13 02:36:36;;;;;;;16.85;11.05;;;;;;;12.12;82.41;94706.39;1680248;85;21315;-49
2022/05/13 02:39:03;;;;;;;18.12;11.63;;;;;;;12.09;82.56;94701.80;1680407;85;21015;-50
2022/05/13 02:41:29;;;;;;;19.40;11.28;;;;;;;12.06;82.63;94699.20;1655079;85;21061;-49
2022/05/13 02:43:56;;;;;;;18.48;12.45;;;;;;;12.10;83.04;94710.22;1680287;85;20999;-50
2022/05/13 02:46:26;;;;;;;16.73;12.50;;;;;;;12.15;82.98;94713.77;1680415;85;21082;-49
2022/05/13 02:48:53;;;;;;;17.77;12.53;;;;;;;12.18;82.81;94710.09;1680609;85;21083;-52
2022/05/13 02:51:20;;;;;;;20.92;11.97;;;;;;;12.23;82.94;94713.62;1680253;85;21081;-49
2022/05/13 02:53:47;;;;;;;20.23;12.50;;;;;;;12.26;82.98;94714.08;1680298;85;21014;-50
2022/05/13 02:56:14;;;;;;;20.72;14.83;;;;;;;12.30;82.75;94702.27;1680294;85;21026;-50
2022/05/13 02:58:41;;;;;;;36.28;26.57;;;;;;;12.26;82.30;94704.42;1680316;85;21022;-50
2022/05/13 03:01:10;;;;;;;42.62;28.32;;;;;;;12.22;82.22;94705.79;1680278;85;21217;-50
2022/05/13 03:03:42;;;;;;;33.33;21.62;;;;;;;12.16;82.12;94704.27;1680480;85;20983;-50
2022/05/13 03:06:09;;;;;;;20.02;13.95;;;;;;;12.11;82.38;94706.23;1680104;85;21597;-49
2022/05/13 03:08:37;;;;;;;27.45;14.70;;;;;;;12.08;82.45;94713.30;1680273;85;21026;-49
2022/05/13 03:11:05;;;;;;;22.60;13.83;;;;;;;12.06;82.38;94718.51;1681839;85;21465;-49
2022/05/13 03:13:31;;;;;;;23.87;14.38;;;;;;;11.98;82.41;94712.52;1681760;85;21144;-49
2022/05/13 03:16:11;;;;;;;31.35;18.90;;;;;;;11.92;82.62;94714.95;1681700;85;21105;-49
2022/05/13 03:18:41;;;;;;;28.25;13.03;;;;;;;11.88;82.94;94715.71;1681721;84;20981;-49
2022/05/13 03:21:08;;;;;;;21.35;13.85;;;;;;;11.84;83.08;94717.22;1687506;85;21515;-49
2022/05/13 03:23:36;;;;;;;20.20;12.25;;;;;;;11.80;83.02;94719.96;1687316;85;21018;-50
2022/05/13 03:26:03;;;;;;;22.07;12.05;;;;;;;11.77;83.02;94712.61;1687338;85;21131;-49
2022/05/13 03:28:30;;;;;;;28.57;12.88;;;;;;;11.71;83.20;94711.68;1687147;85;21017;-50
2022/05/13 03:30:57;;;;;;;32.80;13.35;;;;;;;11.68;83.36;94720.23;1687387;85;21057;-49
2022/05/13 03:33:23;;;;;;;53.35;13.70;;;;;;;11.66;83.40;94716.39;1687316;85;20981;-49
2022/05/13 03:35:50;;;;;;;27.80;11.63;;;;;;;11.71;83.63;94720.70;1665768;85;21081;-49
2022/05/13 03:38:18;;;;;;;20.77;11.53;;;;;;;12.16;84.31;94717.28;1687328;85;21172;-49
2022/05/13 03:40:46;;;;;;;18.23;11.85;;;;;;;12.56;82.96;94718.70;1687365;85;20954;-49
2022/05/13 03:43:13;;;;;;;24.85;12.10;;;;;;;12.64;81.70;94719.91;1665703;85;21034;-50
2022/05/13 03:45:40;;;;;;;23.87;12.00;;;;;;;12.64;81.51;94728.19;1687263;85;21040;-49
2022/05/13 03:48:07;;;;;;;18.55;11.00;;;;;;;12.68;81.45;94728.83;1687419;85;21021;-50
2022/05/13 03:50:35;;;;;;;17.10;12.23;;;;;;;12.71;80.95;94722.38;1687351;85;21216;-49
2022/05/13 03:53:02;;;;;;;15.88;10.88;;;;;;;12.72;80.97;94721.91;1687503;85;21086;-50
2022/05/13 03:55:29;;;;;;;17.92;12.43;;;;;;;12.77;80.68;94724.67;1687353;85;21073;-50
2022/05/13 03:57:56;;;;;;;15.38;12.33;;;;;;;12.82;80.55;94731.72;1687293;85;21085;-50
2022/05/13 04:00:23;;;;;;;21.50;11.78;;;;;;;12.82;80.42;94719.90;1687402;85;21178;-50
2022/05/13 04:02:49;;;;;;;18.65;12.28;;;;;;;12.86;80.46;94727.44;1687271;85;21223;-50
2022/05/13 04:10:48;;;;;;;15.95;10.65;;;;;;;13.04;80.48;94739.87;1687184;85;21026;-50
2022/05/13 04:16:04;;;;;;;23.47;12.70;;;;;;;13.15;80.33;94738.76;1685922;85;21174;-49
2022/05/13 04:18:43;;;;;;;19.40;12.03;;;;;;;13.16;80.26;94736.92;1685777;85;21593;-52
2022/05/13 04:21:19;;;;;;;17.45;11.35;;;;;;;13.18;80.08;94743.35;1680514;84;21554;-50
2022/05/13 04:23:49;;;;;;;15.48;10.10;;;;;;;13.17;80.10;94740.44;1680270;85;21526;-50
2022/05/13 04:26:16;;;;;;;18.70;11.88;;;;;;;13.20;80.09;94730.62;1680675;85;20959;-50
2022/05/13 04:28:47;;;;;;;21.37;11.60;;;;;;;13.20;79.94;94727.86;1680720;85;21219;-51
2022/05/13 04:31:16;;;;;;;19.55;11.38;;;;;;;13.19;80.01;94724.95;1680304;85;21044;-56
2022/05/13 04:33:43;;;;;;;17.32;12.00;;;;;;;13.19;80.07;94717.26;1680527;85;21023;-55
2022/05/13 04:36:11;;;;;;;16.30;11.78;;;;;;;13.22;80.29;94723.23;1680407;85;21071;-49
2022/05/13 04:38:38;;;;;;;20.80;16.32;;;;;;;13.35;80.25;94723.82;1680514;85;21471;-53
2022/05/13 04:43:50;;;;;;;18.32;13.68;;;;;;;13.68;79.64;94712.97;1680370;85;21086;-52
2022/05/13 04:46:17;;;;;;;14.07;11.95;;;;;;;13.82;79.53;94720.56;1680333;85;21019;-51
2022/05/13 04:48:47;;;;;;;22.62;12.43;;;;;;;13.98;79.17;94719.42;1680335;85;21002;-51
2022/05/13 04:51:13;;;;;;;18.10;11.97;;;;;;;14.15;78.49;94720.56;1680413;85;20992;-50
2022/05/13 04:53:40;;;;;;;36.08;16.23;;;;;;;14.30;78.06;94721.39;1680432;85;21754;-51
2022/05/13 04:56:09;;;;;;;28.90;17.95;;;;;;;14.45;77.37;94722.36;1680282;85;21404;-50
2022/05/13 04:58:36;;;;;;;20.08;12.88;;;;;;;14.58;76.95;94722.11;1680598;85;20974;-50
2022/05/13 05:01:06;;;;;;;26.57;14.03;;;;;;;14.71;76.39;94730.94;1680273;85;21006;-50
2022/05/13 05:03:35;;;;;;;31.57;20.43;;;;;;;14.78;75.96;94731.34;1655623;85;21519;-50
2022/05/13 05:06:03;;;;;;;30.02;15.68;;;;;;;14.84;75.58;94736.99;1680148;85;21156;-50
2022/05/13 05:08:31;;;;;;;25.85;13.22;;;;;;;14.88;75.34;94735.58;1654078;85;21171;-50
2022/05/13 05:10:59;;;;;;;24.63;13.30;;;;;;;14.95;75.26;94726.89;1681916;85;20999;-49
2022/05/13 05:13:29;;;;;;;22.95;12.00;;;;;;;15.03;75.21;94723.88;1681907;85;20986;-49
2022/05/13 05:15:57;;;;;;;17.80;12.53;;;;;;;15.14;75.02;94733.04;1682194;85;21039;-50
2022/05/13 05:18:24;;;;;;;23.05;13.15;;;;;;;15.26;74.65;94728.59;1681803;85;21143;-54
2022/05/13 05:20:52;;;;;;;33.95;15.03;;;;;;;15.35;74.46;94726.38;1681555;84;21557;-52
2022/05/13 05:23:23;;;;;;;21.57;13.93;;;;;;;15.44;74.33;94729.05;1677848;85;21081;-50
2022/05/13 05:25:49;;;;;;;23.25;13.08;;;;;;;15.59;74.10;94733.36;1679517;85;21057;-50
2022/05/13 05:28:17;;;;;;;20.82;11.35;;;;;;;15.78;73.43;94742.22;1655382;85;21506;-52
2022/05/13 05:30:44;;;;;;;20.60;11.33;;;;;;;15.94;72.66;94736.92;1681188;85;21135;-54
2022/05/13 05:33:12;;;;;;;38.42;20.35;;;;;;;16.06;72.25;94739.27;1681304;84;21121;-53
2022/05/13 05:35:39;;;;;;;21.95;12.20;;;;;;;16.20;71.82;94735.05;1655622;85;21057;-50
2022/05/13 05:38:07;;;;;;;17.87;11.38;;;;;;;16.33;71.27;94734.86;1638403;86;21594;-51
2022/05/13 05:40:38;;;;;;;19.95;9.75;;;;;;;16.40;70.74;94729.55;1613096;87;21117;-51
2022/05/13 05:43:08;;;;;;;15.70;10.53;;;;;;;16.44;70.32;94726.72;1678625;85;21156;-51
2022/05/13 05:45:37;;;;;;;18.40;9.73;;;;;;;16.51;69.97;94732.48;1685374;84;20913;-53
2022/05/13 05:48:05;;;;;;;19.92;10.15;;;;;;;16.55;69.90;94730.27;1678637;84;21097;-52
2022/05/13 05:50:32;;;;;;;14.85;9.03;;;;;;;16.63;69.72;94725.19;1678208;84;21049;-51
2022/05/13 05:53:01;;;;;;;18.62;10.35;;;;;;;16.77;69.32;94729.89;1675693;84;21065;-52
2022/05/13 05:58:16;;;;;;;17.00;8.95;;;;;;;16.98;68.75;94735.59;1669109;84;21022;-54
2022/05/13 06:00:46;;;;;;;14.68;9.43;;;;;;;17.12;68.52;94725.63;1679831;84;21560;-51
2022/05/13 06:03:13;;;;;;;14.78;9.65;;;;;;;17.26;68.02;94724.77;1678821;84;21522;-52
2022/05/13 06:05:42;;;;;;;12.90;9.45;;;;;;;17.45;67.56;94728.77;1677756;83;21517;-50
2022/05/13 06:08:08;;;;;;;21.20;10.78;;;;;;;17.63;66.96;94721.48;1677295;84;21122;-53
2022/05/13 06:10:35;;;;;;;16.00;10.03;;;;;;;17.80;66.37;94728.69;1678304;84;21951;-53
2022/05/13 06:13:05;;;;;;;16.73;9.23;;;;;;;17.95;66.01;94720.97;1677570;84;21073;-53
2022/05/13 06:15:32;;;;;;;20.15;9.28;;;;;;;18.16;65.70;94723.03;1648221;84;21028;-53
2022/05/13 06:17:58;;;;;;;51.33;31.90;;;;;;;18.32;64.87;94723.15;1682212;84;21119;-54
2022/05/13 06:20:28;;;;;;;13.20;10.35;;;;;;;18.43;64.57;94726.76;1678259;84;21190;-54
2022/05/13 06:22:56;;;;;;;18.80;11.57;;;;;;;18.55;64.14;94721.39;1668271;84;21134;-51
2022/05/13 06:25:23;;;;;;;19.65;9.30;;;;;;;18.69;63.96;94719.06;1653639;85;21061;-53
2022/05/13 06:27:52;;;;;;;15.63;8.13;;;;;;;18.83;63.40;94722.27;1672880;84;22288;-53
2022/05/13 06:30:23;;;;;;;18.25;9.78;;;;;;;18.93;62.85;94716.61;1676079;84;21125;-53
2022/05/13 06:32:50;;;;;;;17.57;8.10;;;;;;;19.04;62.83;94708.27;1665323;85;21057;-54
2022/05/13 06:35:17;;;;;;;23.12;8.60;;;;;;;19.20;62.26;94704.79;1651747;85;21934;-52
2022/05/13 06:37:44;;;;;;;23.32;8.10;;;;;;;19.30;61.88;94703.30;1673323;85;21026;-53
2022/05/13 06:40:11;;;;;;;26.40;8.70;;;;;;;19.41;61.78;94707.49;1651150;85;21088;-53
2022/05/13 06:42:38;;;;;;;14.58;8.48;;;;;;;19.53;61.66;94706.25;1664186;85;21088;-53
2022/05/13 06:45:07;;;;;;;18.77;8.55;;;;;;;19.71;61.30;94695.98;1683370;84;21154;-53
2022/05/13 06:47:35;;;;;;;14.20;8.18;;;;;;;19.88;61.00;94701.56;1652064;85;22216;-50
2022/05/13 06:50:05;;;;;;;17.27;8.88;;;;;;;20.04;60.74;94700.20;1644050;85;21059;-52
2022/05/13 06:52:32;;;;;;;15.00;8.08;;;;;;;20.24;60.53;94692.94;1671469;84;21065;-53
2022/05/13 06:54:59;;;;;;;17.62;8.30;;;;;;;20.42;60.22;94689.59;1670185;84;21678;-52
2022/05/13 06:57:26;;;;;;;13.95;7.33;;;;;;;20.58;60.10;94697.17;1665660;84;21198;-53
2022/05/13 06:59:53;;;;;;;17.10;7.25;;;;;;;20.71;60.64;94700.94;1671080;85;21100;-52
2022/05/13 07:02:22;;;;;;;16.77;8.00;;;;;;;20.85;60.67;94694.31;1673617;85;21053;-51
2022/05/13 07:04:50;;;;;;;12.45;8.30;;;;;;;20.97;59.39;94695.02;1674055;84;21091;-56
2022/05/13 07:07:17;;;;;;;16.97;7.70;;;;;;;21.12;59.66;94694.06;1662331;84;21108;-54
2022/05/13 07:09:44;;;;;;;12.13;7.12;;;;;;;21.27;59.15;94688.89;1673381;84;21254;-51
2022/05/13 07:12:11;;;;;;;11.55;7.50;;;;;;;21.39;58.74;94686.13;1651621;85;21139;-51
2022/05/13 07:14:38;;;;;;;11.88;8.08;;;;;;;21.52;58.39;94686.31;1675405;84;21536;-55
2022/05/13 07:17:06;;;;;;;12.40;9.15;;;;;;;21.66;59.34;94684.57;1666673;84;21064;-53
2022/05/13 07:19:32;;;;;;;14.73;7.65;;;;;;;21.76;58.59;94678.00;1679304;84;21097;-53
2022/05/13 07:22:00;;;;;;;13.05;7.42;;;;;;;21.80;57.68;94678.51;1685183;84;21215;-55
2022/05/13 07:24:28;;;;;;;11.48;6.95;;;;;;;21.85;57.29;94676.30;1678604;83;21466;-50
2022/05/13 07:26:58;;;;;;;14.45;7.60;;;;;;;21.89;57.07;94680.34;1682062;83;21092;-53
2022/05/13 07:29:25;;;;;;;9.95;7.22;;;;;;;21.92;56.68;94678.52;1682055;83;21480;-53
2022/05/13 07:31:52;;;;;;;11.08;7.30;;;;;;;22.03;56.91;94670.02;1682144;85;21075;-52
2022/05/13 07:34:19;;;;;;;17.50;7.53;;;;;;;22.12;55.92;94666.24;1659108;85;22205;-55
2022/05/13 07:36:46;;;;;;;10.90;6.87;;;;;;;22.16;55.76;94659.07;1688761;83;21051;-51
2022/05/13 07:41:57;;;;;;;8.85;7.65;;;;;;;22.34;55.80;94663.98;1682217;85;21033;-54
2022/05/13 07:44:24;;;;;;;10.00;6.92;;;;;;;22.40;55.79;94659.10;1683716;83;21063;-56
2022/05/13 07:46:52;;;;;;;15.35;6.70;;;;;;;22.44;56.01;94657.42;1675288;83;21102;-56
2022/05/13 07:49:18;;;;;;;10.18;6.97;;;;;;;22.45;56.45;94644.91;1682954;83;21132;-57
2022/05/13 07:51:46;;;;;;;15.00;7.40;;;;;;;22.47;56.61;94646.55;1685502;83;21081;-52
2022/05/13 07:54:14;;;;;;;12.03;7.60;;;;;;;22.57;56.05;94643.48;1685060;83;21287;-55
2022/05/13 07:56:42;;;;;;;16.75;7.40;;;;;;;22.72;55.16;94643.19;1683152;83;21017;-53
2022/05/13 07:59:08;;;;;;;16.40;8.13;;;;;;;22.90;55.04;94638.25;1680400;83;21204;-55
2022/05/13 08:01:35;;;;;;;11.93;7.30;;;;;;;23.11;55.67;94642.08;1667953;85;21024;-52
2022/05/13 08:04:03;;;;;;;12.73;6.85;;;;;;;23.35;55.45;94636.36;1681992;85;21660;-56
2022/05/13 08:06:30;;;;;;;9.65;6.50;;;;;;;23.54;54.93;94637.09;1686063;83;21061;-53
2022/05/13 08:08:58;;;;;;;11.93;7.45;;;;;;;23.70;53.43;94634.67;1679152;83;21116;-54
2022/05/13 08:11:29;;;;;;;11.85;6.65;;;;;;;23.77;53.50;94635.45;1682355;83;21303;-53
2022/05/13 08:13:59;;;;;;;14.23;6.60;;;;;;;23.85;53.18;94632.16;1683805;83;21064;-58
2022/05/13 08:16:29;;;;;;;11.33;6.45;;;;;;;23.90;53.55;94629.91;1640384;83;32916;-57
2022/05/13 08:18:57;;;;;;;7.75;5.70;;;;;;;23.92;53.40;94621.69;1676971;83;21085;-57
2022/05/13 08:21:24;;;;;;;19.37;9.15;;;;;;;23.95;53.28;94621.27;1685664;85;21078;-52
2022/05/13 08:23:51;;;;;;;10.25;6.55;;;;;;;23.94;52.93;94626.13;1664862;84;21822;-54
2022/05/13 08:26:18;;;;;;;8.58;6.47;;;;;;;23.92;52.34;94625.91;1675615;84;21116;-57
2022/05/13 08:28:45;;;;;;;17.67;6.60;;;;;;;23.92;51.80;94630.12;1676753;85;21081;-59
2022/05/13 08:31:15;;;;;;;10.58;6.55;;;;;;;23.92;51.44;94631.52;1672888;83;21080;-58
2022/05/13 08:33:43;;;;;;;20.95;7.67;;;;;;;23.88;51.12;94635.30;1671115;84;21038;-58
2022/05/13 08:36:10;;;;;;;10.95;6.37;;;;;;;23.78;51.11;94632.74;1650029;85;21119;-58
2022/05/13 08:38:40;;;;;;;16.50;6.50;;;;;;;23.72;50.35;94630.68;1676485;85;21022;-62
2022/05/13 08:41:24;;;;;;;12.60;6.10;;;;;;;23.66;50.43;94634.87;1651194;85;21144;-61
2022/05/13 08:43:54;;;;;;;9.48;5.90;;;;;;;23.66;50.78;94636.27;1675479;84;21506;-53
2022/05/13 08:46:42;;;;;;;14.43;6.42;;;;;;;23.70;50.22;94628.28;1675124;84;21198;-58
2022/05/13 08:49:35;;;;;;;11.70;6.53;;;;;;;23.75;49.91;94621.17;1676758;84;21248;-55
2022/05/13 08:53:06;;;;;;;9.90;6.70;;;;;;;23.85;50.92;94618.11;1674716;84;21060;-56
2022/05/13 08:54:43;;;;;;;10.28;6.47;;;;;;;23.97;52.27;94616.61;1672785;83;21080;-52
2022/05/13 08:57:11;;;;;;;19.65;6.90;;;;;;;24.05;52.08;94621.73;1674435;84;21605;-54
2022/05/13 09:00:05;;;;;;;10.60;6.15;;;;;;;24.15;51.57;94629.20;1677502;84;21072;-55
2022/05/13 09:02:40;;;;;;;;;;;;;;;24.29;51.15;94619.49;1675603;84;21273;-56
2022/05/13 09:05:34;;;;;;;11.20;6.50;;;;;;;24.47;50.65;94617.87;1673429;84;20151;-55
2022/05/13 09:08:02;;;;;;;12.20;6.25;;;;;;;24.53;50.58;94610.13;1644619;85;21097;-58
2022/05/13 09:10:29;;;;;;;11.38;6.47;;;;;;;24.55;49.79;94615.97;1669902;85;21099;-55
2022/05/13 09:13:04;;;;;;;11.68;6.10;;;;;;;24.56;48.00;94609.78;1648691;84;21065;-55
2022/05/13 09:15:39;;;;;;;24.15;6.80;;;;;;;24.64;48.02;94607.08;1673758;84;21185;-59
2022/05/13 09:18:37;;;;;;;9.48;6.08;;;;;;;24.66;48.26;94605.25;1672481;84;21058;-55
2022/05/13 09:21:11;;;;;;;13.95;7.22;;;;;;;24.67;47.43;94603.95;1679350;84;21018;-54
2022/05/13 09:23:39;;;;;;;15.43;6.28;;;;;;;24.57;46.79;94606.33;1672606;84;21123;-53
2022/05/13 09:26:17;;;;;;;12.20;6.40;;;;;;;24.47;45.63;94606.61;1652989;84;21084;-55
2022/05/13 09:29:12;;;;;;;14.60;7.67;;;;;;;24.38;47.23;94596.55;1671462;84;21314;-57
2022/05/13 09:31:50;;;;;;;11.78;7.58;;;;;;;24.33;47.71;94610.08;1670640;84;21090;-56
2022/05/13 09:34:39;;;;;;;14.18;9.23;;;;;;;24.16;47.28;94603.23;1644952;85;22391;-55
2022/05/13 09:37:21;;;;;;;14.00;7.95;;;;;;;24.05;47.75;94600.64;1677603;83;21126;-55
2022/05/13 09:39:51;;;;;;;11.97;6.50;;;;;;;23.94;47.90;94594.46;1690851;84;21300;-54
2022/05/13 09:42:29;;;;;;;13.98;6.58;;;;;;;23.84;46.39;94588.50;1676945;84;21097;-58
2022/05/13 09:45:21;;;;;;;18.57;8.10;;;;;;;23.78;46.90;94582.17;1642841;85;21127;-55
2022/05/13 09:48:18;;;;;;;13.72;7.33;;;;;;;23.84;47.11;94579.30;1676979;84;21064;-55
2022/05/13 09:50:53;;;;;;;11.18;6.55;;;;;;;23.93;47.43;94582.45;1674635;84;21125;-56
2022/05/13 09:53:26;;;;;;;9.20;6.33;;;;;;;24.09;48.14;94567.34;1648167;85;21109;-53
2022/05/13 09:55:55;;;;;;;10.85;6.58;;;;;;;24.25;48.49;94567.67;1668678;84;21746;-55
2022/05/13 09:58:33;;;;;;;10.23;6.37;;;;;;;24.38;48.00;94560.66;1667730;84;21100;-56
2022/05/13 10:01:11;;;;;;;17.00;6.55;;;;;;;24.53;47.69;94570.74;1658854;84;21056;-56
2022/05/13 10:03:38;;;;;;;11.22;6.42;;;;;;;24.65;46.36;94568.56;1674081;84;20990;-56
2022/05/13 10:06:17;;;;;;;12.30;5.70;;;;;;;24.72;43.91;94561.52;1671928;84;21045;-52
2022/05/13 10:13:57;;;;;;;15.30;6.70;;;;;;;24.72;43.05;94565.08;1675101;84;21293;-54
2022/05/13 10:14:29;;;;;;;15.08;7.00;;;;;;;24.78;42.90;94558.67;1687592;84;21008;-55
2022/05/13 10:17:01;;;;;;;10.48;6.60;;;;;;;24.87;42.54;94558.87;1686330;84;22266;-53
2022/05/13 10:19:53;;;;;;;7.45;5.42;;;;;;;24.87;41.52;94570.12;1671538;84;20982;-53
2022/05/13 10:22:33;;;;;;;9.28;5.17;;;;;;;24.74;40.07;94554.03;1679577;84;21245;-55
2022/05/13 10:25:04;;;;;;;7.75;5.62;;;;;;;24.53;40.03;94569.34;1682860;83;21999;-53
2022/05/13 10:27:39;;;;;;;13.72;5.20;;;;;;;24.36;40.09;94571.69;1686987;83;21068;-54
2022/05/13 10:30:09;;;;;;;12.37;4.50;;;;;;;24.11;40.96;94593.62;1684086;85;21579;-57
2022/05/13 10:32:56;;;;;;;15.83;5.42;;;;;;;23.70;42.11;94600.96;1681139;83;21113;-55
2022/05/13 10:35:26;;;;;;;8.98;4.28;;;;;;;23.21;45.91;94613.72;1682415;85;21727;-52
2022/05/13 10:38:15;;;;;;;6.53;4.42;;;;;;;22.63;48.26;94642.14;1682371;85;21379;-51
2022/05/13 10:40:43;;;;;;;10.08;5.00;;;;;;;22.23;51.89;94651.47;1684096;83;21095;-54
2022/05/13 10:43:43;;;;;;;8.90;3.92;;;;;;;21.74;53.01;94678.55;1683635;85;22111;-54
2022/05/13 10:46:45;;;;;;;6.83;3.55;;;;;;;21.36;53.43;94682.97;1682777;83;21033;-53
2022/05/13 10:49:13;;;;;;;6.33;3.93;;;;;;;20.91;54.68;94677.51;1663313;85;21244;-53
2022/05/13 10:51:58;;;;;;;11.12;4.87;;;;;;;20.46;55.05;94669.12;1692607;83;21366;-54
2022/05/13 10:54:51;;;;;;;5.60;3.90;;;;;;;20.11;55.73;94669.59;1683219;83;21054;-56
2022/05/13 10:57:32;;;;;;;;;;;;;;;19.84;57.13;94685.08;1686649;83;21003;-57
2022/05/13 11:00:14;;;;;;;6.00;4.33;;;;;;;19.59;59.93;94685.33;1685461;83;20509;-55
2022/05/13 11:02:59;;;;;;;7.75;4.90;;;;;;;19.36;59.50;94676.16;1682749;83;21197;-57
2022/05/13 11:06:01;;;;;;;7.87;4.30;;;;;;;19.28;61.00;94678.56;1681955;83;21047;-55
2022/05/13 11:08:53;;;;;;;5.53;4.50;;;;;;;19.30;61.50;94683.78;1630764;85;21030;-55
2022/05/13 11:11:44;;;;;;;7.45;4.67;;;;;;;19.35;61.72;94683.02;1642615;86;20978;-54
2022/05/13 11:14:38;;;;;;;5.33;4.40;;;;;;;19.32;63.24;94686.05;1624965;87;21026;-60
2022/05/13 11:17:49;;;;;;;8.90;5.20;;;;;;;19.25;63.69;94693.52;1600299;86;21168;-58
2022/05/13 11:20:47;;;;;;;7.42;4.95;;;;;;;19.18;63.40;94693.38;1642213;86;21089;-59
2022/05/13 11:26:55;;;;;;;8.50;5.60;;;;;;;19.27;64.34;94668.05;1634318;87;21056;-62
2022/05/13 11:29:42;;;;;;;7.85;4.87;;;;;;;19.49;64.54;94660.31;1637471;87;21057;-54
2022/05/13 11:32:20;;;;;;;9.00;5.55;;;;;;;19.62;64.32;94655.78;1637787;86;21419;-56
2022/05/13 11:35:21;;;;;;;9.80;5.22;;;;;;;19.82;64.79;94648.53;1612580;86;21050;-53
2022/05/13 11:37:56;;;;;;;7.78;5.03;;;;;;;20.08;64.35;94639.89;1634599;86;21133;-54
2022/05/13 11:40:43;;;;;;;9.30;5.00;;;;;;;20.33;62.78;94636.75;1634831;87;21083;-53
2022/05/13 11:43:30;;;;;;;9.53;5.65;;;;;;;20.54;61.71;94617.76;1636213;87;21071;-53
2022/05/13 11:46:22;;;;;;;5.45;4.62;;;;;;;20.77;61.41;94609.38;1622580;87;21212;-55
2022/05/13 11:48:52;;;;;;;7.92;4.67;;;;;;;20.93;60.33;94605.77;1631968;86;21582;-54
2022/05/13 11:51:31;;;;;;;5.58;4.97;;;;;;;21.04;59.68;94602.14;1636539;87;21053;-53
2022/05/13 11:54:07;;;;;;;11.20;5.37;;;;;;;21.08;59.29;94599.20;1636550;87;21053;-54
2022/05/13 11:56:35;;;;;;;10.25;5.28;;;;;;;21.05;58.93;94598.84;1633479;87;21367;-53
2022/05/13 11:59:10;;;;;;;6.95;5.15;;;;;;;20.98;59.13;94595.83;1634874;84;22305;-55
2022/05/13 12:01:51;;;;;;;8.38;5.75;;;;;;;20.92;59.26;94595.12;1636224;87;21056;-53
2022/05/13 12:04:25;;;;;;;7.50;5.42;;;;;;;20.83;60.09;94605.17;1636370;87;21067;-54
2022/05/13 12:06:55;;;;;;;6.45;5.30;;;;;;;20.67;60.20;94622.16;1636097;86;21100;-55
2022/05/13 12:09:47;;;;;;;10.93;6.50;;;;;;;20.51;61.23;94636.19;1636155;87;21108;-54